createdAt,value
2018-09-28T04:00:20.539Z,73.90
2018-09-28T04:00:53.201Z,73.90
2018-09-28T04:01:25.830Z,73.90
2018-09-28T04:01:58.504Z,73.80
2018-09-28T04:02:31.149Z,73.70
2018-09-28T04:03:03.905Z,73.80
2018-09-28T04:03:36.486Z,73.90
2018-09-28T04:04:09.122Z,73.90
2018-09-28T04:04:41.817Z,73.90
2018-09-28T04:05:14.466Z,73.60
2018-09-28T04:05:47.153Z,74.10
2018-09-28T04:06:19.838Z,74.70
2018-09-28T04:06:52.482Z,74.20
2018-09-28T04:07:25.142Z,74.00
2018-09-28T04:07:57.829Z,74.20
2018-09-28T04:08:30.466Z,74.20
2018-09-28T04:09:06.614Z,74.40
2018-09-28T04:09:39.280Z,74.20
2018-09-28T04:10:11.933Z,74.30
2018-09-28T04:10:44.594Z,74.30
2018-09-28T04:11:17.258Z,74.30
2018-09-28T04:11:49.938Z,74.20
2018-09-28T04:12:22.606Z,74.10
2018-09-28T04:12:55.269Z,74.20
2018-09-28T04:13:27.905Z,74.10
2018-09-28T04:14:00.522Z,74.20
2018-09-28T04:14:33.163Z,74.20
2018-09-28T04:15:05.943Z,74.00
2018-09-28T04:15:38.500Z,73.90
2018-09-28T04:16:11.205Z,73.90
2018-09-28T04:16:43.907Z,74.20
2018-09-28T04:17:16.581Z,74.00
2018-09-28T04:17:49.237Z,74.10
2018-09-28T04:18:21.931Z,74.00
2018-09-28T04:18:54.582Z,74.00
2018-09-28T04:19:27.230Z,74.00
2018-09-28T04:19:59.906Z,74.10
2018-09-28T04:20:32.605Z,74.10
2018-09-28T04:21:05.243Z,74.00
2018-09-28T04:21:37.885Z,74.00
2018-09-28T04:22:10.588Z,74.00
2018-09-28T04:22:43.235Z,74.00
2018-09-28T04:23:15.865Z,74.10
2018-09-28T04:23:48.497Z,74.10
2018-09-28T04:24:21.121Z,74.00
2018-09-28T04:24:53.801Z,74.10
2018-09-28T04:25:26.513Z,74.10
2018-09-28T04:25:59.160Z,74.30
2018-09-28T04:26:31.797Z,74.10
2018-09-28T04:27:04.481Z,74.20
2018-09-28T04:28:40.368Z,74.20
2018-09-28T04:29:13.010Z,74.10
2018-09-28T04:29:45.654Z,74.20
2018-09-28T04:30:18.332Z,74.20
2018-09-28T04:30:50.989Z,74.80
2018-09-28T04:31:23.650Z,74.30
2018-09-28T04:31:56.306Z,74.30
2018-09-28T04:32:28.968Z,74.40
2018-09-28T04:33:01.638Z,74.30
2018-09-28T04:34:37.673Z,74.20
2018-09-28T04:35:10.349Z,74.30
2018-09-28T04:35:42.981Z,74.20
2018-09-28T04:36:15.654Z,74.10
2018-09-28T04:36:48.397Z,74.10
2018-09-28T04:37:21.077Z,74.20
2018-09-28T04:37:53.737Z,74.30
2018-09-28T04:38:26.410Z,74.20
2018-09-28T04:38:59.061Z,74.10
2018-09-28T04:39:31.714Z,74.00
2018-09-28T04:40:04.473Z,74.10
2018-09-28T04:40:37.157Z,74.10
2018-09-28T04:41:09.822Z,74.10
2018-09-28T04:41:42.457Z,74.10
2018-09-28T04:42:15.166Z,74.00
2018-09-28T04:42:47.821Z,74.00
2018-09-28T04:43:20.504Z,74.60
2018-09-28T04:43:53.190Z,74.00
2018-09-28T04:44:25.859Z,74.00
2018-09-28T04:44:58.513Z,74.10
2018-09-28T04:45:31.202Z,74.10
2018-09-28T04:46:03.852Z,74.10
2018-09-28T04:46:36.494Z,74.90
2018-09-28T04:47:09.190Z,74.40
2018-09-28T04:47:41.838Z,74.40
2018-09-28T04:48:14.505Z,74.50
2018-09-28T04:48:47.166Z,74.40
2018-09-28T04:49:19.805Z,74.50
2018-09-28T04:49:52.486Z,74.40
2018-09-28T04:50:25.118Z,74.70
2018-09-28T04:50:57.798Z,74.70
2018-09-28T04:51:30.441Z,74.50
2018-09-28T04:52:03.114Z,74.70
2018-09-28T04:52:35.754Z,75.00
2018-09-28T04:53:08.385Z,74.60
2018-09-28T04:53:41.029Z,74.40
2018-09-28T04:54:13.665Z,75.00
2018-09-28T04:54:46.347Z,75.00
2018-09-28T04:55:19.034Z,74.90
2018-09-28T04:55:51.702Z,74.70
2018-09-28T04:56:24.397Z,74.70
2018-09-28T04:56:57.050Z,74.80
2018-09-28T04:57:29.689Z,74.60
2018-09-28T04:58:02.419Z,74.50
2018-09-28T04:58:35.078Z,74.40
2018-09-28T04:59:07.746Z,74.50
2018-09-28T04:59:40.381Z,74.40
2018-09-28T05:00:13.049Z,74.40
2018-09-28T05:00:45.687Z,74.60
2018-09-28T05:01:25.093Z,74.70
2018-09-28T05:01:57.809Z,74.60
2018-09-28T05:02:30.465Z,75.10
2018-09-28T05:03:03.102Z,74.50
2018-09-28T05:03:35.773Z,74.60
2018-09-28T05:04:08.434Z,74.60
2018-09-28T05:04:41.082Z,74.60
2018-09-28T05:05:13.749Z,74.60
2018-09-28T05:05:46.372Z,74.70
2018-09-28T05:06:19.041Z,74.80
2018-09-28T05:06:51.714Z,74.90
2018-09-28T05:07:24.363Z,74.90
2018-09-28T05:07:57.014Z,75.20
2018-09-28T05:08:29.689Z,74.80
2018-09-28T05:09:02.480Z,74.90
2018-09-28T05:09:35.106Z,75.00
2018-09-28T05:10:07.766Z,75.10
2018-09-28T05:10:40.413Z,75.10
2018-09-28T05:11:13.265Z,75.30
2018-09-28T05:11:45.929Z,75.40
2018-09-28T05:12:18.610Z,75.50
2018-09-28T05:12:51.318Z,75.70
2018-09-28T05:13:24.030Z,75.90
2018-09-28T05:13:56.705Z,75.90
2018-09-28T05:14:29.333Z,75.90
2018-09-28T05:15:02.032Z,76.20
2018-09-28T05:15:34.673Z,76.20
2018-09-28T05:16:07.334Z,76.20
2018-09-28T05:16:40.298Z,76.40
2018-09-28T05:17:12.947Z,76.20
2018-09-28T05:17:45.633Z,76.10
2018-09-28T05:18:18.258Z,76.40
2018-09-28T05:18:50.909Z,76.40
2018-09-28T05:19:23.551Z,76.40
2018-09-28T05:19:56.210Z,76.30
2018-09-28T05:20:28.873Z,76.40
2018-09-28T05:21:01.524Z,76.40
2018-09-28T05:21:34.193Z,76.40
2018-09-28T05:22:06.858Z,76.70
2018-09-28T05:22:39.985Z,76.80
2018-09-28T05:23:12.660Z,76.60
2018-09-28T05:23:45.309Z,76.50
2018-09-28T05:24:17.962Z,76.70
2018-09-28T05:24:50.638Z,76.80
2018-09-28T05:25:23.349Z,77.10
2018-09-28T05:25:56.083Z,77.20
2018-09-28T05:26:28.847Z,77.20
2018-09-28T05:27:01.566Z,77.30
2018-09-28T05:27:34.210Z,77.70
2018-09-28T05:28:06.882Z,77.50
2018-09-28T05:28:39.567Z,77.50
2018-09-28T05:29:12.247Z,77.30
2018-09-28T05:29:44.897Z,77.30
2018-09-28T05:30:17.562Z,77.30
2018-09-28T05:30:53.961Z,77.30
2018-09-28T05:31:23.007Z,77.20
2018-09-28T05:31:55.784Z,77.10
2018-09-28T05:32:28.432Z,77.10
2018-09-28T05:33:01.029Z,77.30
2018-09-28T05:33:33.685Z,77.70
2018-09-28T05:34:06.407Z,77.90
2018-09-28T05:34:39.146Z,77.40
2018-09-28T05:35:11.782Z,77.10
2018-09-28T05:35:44.453Z,77.10
2018-09-28T05:36:17.087Z,77.10
2018-09-28T05:36:49.758Z,77.20
2018-09-28T05:37:22.492Z,77.10
2018-09-28T05:37:55.106Z,77.10
2018-09-28T05:38:27.758Z,77.30
2018-09-28T05:39:00.396Z,77.00
2018-09-28T05:39:33.135Z,77.30
2018-09-28T05:40:05.773Z,77.30
2018-09-28T05:40:38.813Z,77.50
2018-09-28T05:41:11.450Z,77.70
2018-09-28T05:41:44.086Z,77.70
2018-09-28T05:42:16.713Z,77.80
2018-09-28T05:42:49.361Z,77.80
2018-09-28T05:43:22.026Z,78.30
2018-09-28T05:43:54.703Z,78.20
2018-09-28T05:44:27.354Z,78.00
2018-09-28T05:45:00.028Z,77.80
2018-09-28T05:45:32.701Z,78.10
2018-09-28T05:46:05.383Z,78.30
2018-09-28T05:46:38.047Z,78.30
2018-09-28T05:47:10.702Z,78.70
2018-09-28T05:47:43.306Z,78.80
2018-09-28T05:48:15.995Z,78.40
2018-09-28T05:48:48.637Z,77.90
2018-09-28T05:49:21.297Z,77.90
2018-09-28T05:49:53.938Z,78.00
2018-09-28T05:50:26.618Z,78.40
2018-09-28T05:50:59.306Z,78.50
2018-09-28T05:51:32.320Z,79.10
2018-09-28T05:52:04.871Z,79.10
2018-09-28T05:52:37.504Z,78.50
2018-09-28T05:53:10.158Z,78.10
2018-09-28T05:53:42.842Z,77.70
2018-09-28T05:54:15.494Z,77.70
2018-09-28T05:54:48.150Z,77.30
2018-09-28T05:55:20.802Z,77.50
2018-09-28T05:55:53.525Z,78.50
2018-09-28T05:56:26.161Z,78.10
2018-09-28T05:56:58.829Z,77.80
2018-09-28T05:57:31.493Z,77.40
2018-09-28T05:58:09.831Z,77.40
2018-09-28T05:58:48.026Z,77.30
2018-09-28T06:00:26.062Z,77.20
2018-09-28T06:01:04.288Z,77.40
2018-09-28T06:01:42.522Z,78.30
2018-09-28T06:02:20.819Z,78.30
2018-09-28T06:02:59.007Z,77.50
2018-09-28T06:03:31.634Z,77.70
2018-09-28T06:04:09.914Z,78.10
2018-09-28T06:04:48.115Z,77.70
2018-09-28T06:05:26.497Z,77.90
2018-09-28T06:06:01.810Z,77.90
2018-09-28T06:06:34.502Z,77.70
2018-09-28T06:07:07.156Z,77.70
2018-09-28T06:07:39.848Z,77.50
2018-09-28T06:08:12.878Z,77.60
2018-09-28T06:08:45.518Z,77.80
2018-09-28T06:09:18.163Z,77.70
2018-09-28T06:09:50.827Z,78.00
2018-09-28T06:10:23.479Z,78.10
2018-09-28T06:10:56.146Z,78.10
2018-09-28T06:11:28.793Z,78.10
2018-09-28T06:12:01.492Z,77.70
2018-09-28T06:12:34.161Z,77.70
2018-09-28T06:13:07.114Z,77.80
2018-09-28T06:13:39.749Z,78.00
2018-09-28T06:14:12.429Z,78.30
2018-09-28T06:14:45.070Z,78.30
2018-09-28T06:15:17.736Z,78.30
2018-09-28T06:15:50.714Z,78.10
2018-09-28T06:16:23.368Z,77.80
2018-09-28T06:16:55.998Z,77.80
2018-09-28T06:17:28.673Z,78.00
2018-09-28T06:18:01.400Z,77.80
2018-09-28T06:18:34.111Z,77.80
2018-09-28T06:19:06.745Z,77.80
2018-09-28T06:19:39.417Z,77.80
2018-09-28T06:20:12.096Z,78.10
2018-09-28T06:20:44.887Z,78.10
2018-09-28T06:21:17.587Z,78.10
2018-09-28T06:21:50.245Z,78.20
2018-09-28T06:22:22.938Z,78.90
2018-09-28T06:22:55.620Z,78.20
2018-09-28T06:23:28.257Z,78.10
2018-09-28T06:24:00.976Z,78.00
2018-09-28T06:24:33.622Z,77.80
2018-09-28T06:25:06.414Z,77.60
2018-09-28T06:25:39.058Z,77.20
2018-09-28T06:26:11.723Z,77.00
2018-09-28T06:26:44.403Z,76.80
2018-09-28T06:27:17.058Z,76.80
2018-09-28T06:27:50.165Z,76.70
2018-09-28T06:28:22.857Z,76.80
2018-09-28T06:28:55.818Z,76.80
2018-09-28T06:29:28.472Z,76.50
2018-09-28T06:30:01.163Z,76.50
2018-09-28T06:30:33.822Z,76.50
2018-09-28T06:31:06.662Z,76.10
2018-09-28T06:31:39.331Z,76.30
2018-09-28T06:32:12.000Z,76.10
2018-09-28T06:32:44.653Z,76.00
2018-09-28T06:33:17.318Z,75.90
2018-09-28T06:33:50.071Z,75.80
2018-09-28T06:34:22.702Z,75.80
2018-09-28T06:34:55.353Z,75.90
2018-09-28T06:35:28.052Z,76.20
2018-09-28T06:36:00.701Z,76.00
2018-09-28T06:36:33.353Z,76.10
2018-09-28T06:37:06.030Z,76.20
2018-09-28T06:37:38.685Z,76.30
2018-09-28T06:38:11.545Z,75.90
2018-09-28T06:38:44.207Z,75.30
2018-09-28T06:39:16.908Z,75.40
2018-09-28T06:39:49.566Z,74.80
2018-09-28T06:40:22.210Z,74.40
2018-09-28T06:40:54.870Z,73.90
2018-09-28T06:41:27.532Z,73.30
2018-09-28T06:42:00.209Z,73.00
2018-09-28T06:42:32.870Z,73.10
2018-09-28T06:43:05.578Z,73.60
2018-09-28T06:43:38.238Z,73.50
2018-09-28T06:44:10.892Z,72.70
2018-09-28T06:44:43.594Z,71.90
2018-09-28T06:45:16.206Z,72.20
2018-09-28T06:45:48.846Z,72.00
2018-09-28T06:46:21.523Z,71.20
2018-09-28T06:46:54.203Z,71.10
2018-09-28T06:47:26.870Z,70.70
2018-09-28T06:47:59.640Z,70.90
2018-09-28T06:48:32.234Z,70.70
2018-09-28T06:49:04.914Z,68.20
2018-09-28T06:49:37.582Z,67.50
2018-09-28T06:50:10.271Z,67.60
2018-09-28T06:50:42.938Z,67.50
2018-09-28T06:51:15.639Z,67.20
2018-09-28T06:51:48.285Z,67.30
2018-09-28T06:52:20.930Z,66.40
2018-09-28T06:52:53.596Z,65.90
2018-09-28T06:53:26.246Z,65.70
2018-09-28T06:53:58.958Z,65.50
2018-09-28T06:54:31.545Z,64.80
2018-09-28T06:55:04.239Z,64.40
2018-09-28T06:55:36.913Z,64.90
2018-09-28T06:56:09.565Z,65.50
2018-09-28T06:56:42.238Z,65.30
2018-09-28T06:57:14.864Z,65.20
2018-09-28T06:57:47.541Z,65.00
2018-09-28T06:58:20.733Z,64.90
2018-09-28T06:58:53.330Z,65.00
2018-09-28T06:59:26.026Z,64.20
2018-09-28T06:59:58.746Z,64.40
2018-09-28T07:00:31.341Z,64.50
2018-09-28T07:01:04.042Z,65.00
2018-09-28T07:01:36.739Z,64.10
2018-09-28T07:02:09.433Z,64.20
2018-09-28T07:02:42.087Z,64.20
2018-09-28T07:03:14.726Z,63.90
2018-09-28T07:03:47.370Z,64.00
2018-09-28T07:04:20.013Z,64.80
2018-09-28T07:04:52.663Z,63.60
2018-09-28T07:05:25.293Z,63.60
2018-09-28T07:05:58.052Z,63.20
2018-09-28T07:06:30.678Z,63.00
2018-09-28T07:07:03.337Z,62.70
2018-09-28T07:07:35.998Z,62.40
2018-09-28T07:08:08.677Z,62.90
2018-09-28T07:08:41.298Z,62.40
2018-09-28T07:09:13.984Z,62.50
2018-09-28T07:09:46.655Z,62.50
2018-09-28T07:10:19.331Z,62.70
2018-09-28T07:10:52.182Z,62.80
2018-09-28T07:11:24.845Z,62.90
2018-09-28T07:11:58.000Z,62.70
2018-09-28T07:12:30.654Z,62.90
2018-09-28T07:13:03.333Z,63.20
2018-09-28T07:13:36.046Z,63.90
2018-09-28T07:14:09.302Z,64.10
2018-09-28T07:14:41.951Z,63.70
2018-09-28T07:15:14.622Z,63.80
2018-09-28T07:15:47.311Z,64.50
2018-09-28T07:16:20.006Z,64.40
2018-09-28T07:16:52.734Z,64.60
2018-09-28T07:17:25.398Z,64.60
2018-09-28T07:17:58.081Z,64.40
2018-09-28T07:18:30.699Z,64.60
2018-09-28T07:19:03.492Z,64.80
2018-09-28T07:19:36.167Z,65.00
2018-09-28T07:20:08.903Z,65.40
2018-09-28T07:20:41.526Z,65.30
2018-09-28T07:21:14.245Z,65.10
2018-09-28T07:21:46.882Z,64.70
2018-09-28T07:22:19.569Z,64.30
2018-09-28T07:22:52.263Z,64.60
2018-09-28T07:23:24.910Z,64.70
2018-09-28T07:23:57.620Z,65.00
2018-09-28T07:24:30.261Z,64.70
2018-09-28T07:25:02.997Z,64.00
2018-09-28T07:25:35.662Z,63.80
2018-09-28T07:26:08.314Z,63.80
2018-09-28T07:26:40.958Z,63.40
2018-09-28T07:27:13.617Z,63.40
2018-09-28T07:27:46.285Z,63.10
2018-09-28T07:28:19.049Z,62.90
2018-09-28T07:28:51.766Z,63.00
2018-09-28T07:29:24.445Z,63.20
2018-09-28T07:29:57.155Z,63.40
2018-09-28T07:30:30.110Z,63.80
2018-09-28T07:31:02.758Z,64.20
2018-09-28T07:31:35.446Z,64.30
2018-09-28T07:32:08.094Z,64.10
2018-09-28T07:32:40.719Z,64.00
2018-09-28T07:33:13.382Z,64.00
2018-09-28T07:33:46.063Z,63.50
2018-09-28T07:34:18.729Z,63.20
2018-09-28T07:34:51.378Z,63.10
2018-09-28T07:35:24.030Z,63.10
2018-09-28T07:35:56.725Z,61.60
2018-09-28T07:36:29.548Z,61.50
2018-09-28T07:37:02.320Z,61.30
2018-09-28T07:37:34.754Z,60.80
2018-09-28T07:38:07.426Z,60.30
2018-09-28T07:38:40.098Z,60.00
2018-09-28T07:39:12.913Z,60.20
2018-09-28T07:39:45.545Z,60.30
2018-09-28T07:40:18.262Z,60.40
2018-09-28T07:40:50.914Z,60.30
2018-09-28T07:41:23.614Z,61.00
2018-09-28T07:41:56.283Z,60.50
2018-09-28T07:42:28.922Z,60.10
2018-09-28T07:43:01.579Z,60.00
2018-09-28T07:43:34.213Z,60.40
2018-09-28T07:44:06.986Z,60.60
2018-09-28T07:44:39.685Z,61.00
2018-09-28T07:45:12.350Z,60.90
2018-09-28T07:45:45.234Z,61.50
2018-09-28T07:46:17.878Z,62.00
2018-09-28T07:46:50.549Z,62.20
2018-09-28T07:47:23.229Z,61.10
2018-09-28T07:47:55.916Z,60.40
2018-09-28T07:48:28.559Z,60.30
2018-09-28T07:49:01.252Z,60.50
2018-09-28T07:49:33.915Z,60.60
2018-09-28T07:50:06.659Z,60.50
2018-09-28T07:50:39.294Z,60.80
2018-09-28T07:51:11.914Z,60.90
2018-09-28T07:51:44.574Z,60.70
2018-09-28T07:52:17.203Z,60.80
2018-09-28T07:52:49.838Z,60.30
2018-09-28T07:53:22.498Z,59.50
2018-09-28T07:53:55.199Z,60.00
2018-09-28T07:54:27.826Z,59.20
2018-09-28T07:55:00.491Z,59.10
2018-09-28T07:55:33.205Z,59.10
2018-09-28T07:56:05.970Z,58.40
2018-09-28T07:56:38.641Z,56.40
2018-09-28T07:57:11.303Z,56.30
2018-09-28T07:57:43.987Z,55.60
2018-09-28T07:58:16.668Z,56.00
2018-09-28T07:58:49.351Z,55.70
2018-09-28T07:59:22.010Z,55.70
2018-09-28T07:59:54.691Z,55.60
2018-09-28T08:00:27.337Z,55.20
2018-09-28T08:01:00.313Z,55.40
2018-09-28T08:01:32.978Z,56.20
2018-09-28T08:02:06.033Z,56.00
2018-09-28T08:02:38.679Z,56.10
2018-09-28T08:03:11.317Z,56.10
2018-09-28T08:03:44.018Z,56.10
2018-09-28T08:04:16.637Z,55.80
2018-09-28T08:04:49.286Z,55.70
2018-09-28T08:05:21.954Z,56.00
2018-09-28T08:05:55.201Z,56.20
2018-09-28T08:06:27.894Z,56.30
2018-09-28T08:07:00.551Z,56.30
2018-09-28T08:07:33.185Z,56.60
2018-09-28T08:08:05.957Z,57.20
2018-09-28T08:08:38.598Z,57.20
2018-09-28T08:09:11.502Z,57.20
2018-09-28T08:09:44.158Z,57.30
2018-09-28T08:10:16.838Z,57.80
2018-09-28T08:10:49.522Z,58.10
2018-09-28T08:11:22.159Z,58.40
2018-09-28T08:11:54.846Z,58.50
2018-09-28T08:12:27.527Z,58.60
2018-09-28T08:13:00.181Z,59.00
2018-09-28T08:13:32.825Z,59.40
2018-09-28T08:14:05.795Z,59.10
2018-09-28T08:14:38.441Z,58.50
2018-09-28T08:15:11.094Z,58.60
2018-09-28T08:15:43.739Z,58.50
2018-09-28T08:16:16.390Z,58.20
2018-09-28T08:16:49.052Z,58.20
2018-09-28T08:17:21.726Z,58.50
2018-09-28T08:17:54.437Z,58.80
2018-09-28T08:18:27.091Z,58.50
2018-09-28T08:18:59.758Z,58.30
2018-09-28T08:19:32.420Z,58.60
2018-09-28T08:20:05.131Z,58.30
2018-09-28T08:20:37.798Z,58.40
2018-09-28T08:21:10.448Z,58.80
2018-09-28T08:21:43.106Z,58.30
2018-09-28T08:22:15.753Z,58.40
2018-09-28T08:22:48.503Z,57.80
2018-09-28T08:23:21.207Z,57.20
2018-09-28T08:23:53.861Z,56.80
2018-09-28T08:24:26.522Z,56.10
2018-09-28T08:24:59.187Z,55.60
2018-09-28T08:25:31.850Z,55.20
2018-09-28T08:26:04.533Z,55.00
2018-09-28T08:26:37.265Z,55.20
2018-09-28T08:27:09.938Z,55.70
2018-09-28T08:27:42.574Z,55.20
2018-09-28T08:28:15.285Z,55.50
2018-09-28T08:28:47.953Z,54.70
2018-09-28T08:29:20.594Z,55.20
2018-09-28T08:29:53.285Z,55.50
2018-09-28T08:30:26.003Z,55.20
2018-09-28T08:30:58.602Z,55.70
2018-09-28T08:31:31.250Z,55.30
2018-09-28T08:32:03.941Z,54.90
2018-09-28T08:32:36.589Z,54.80
2018-09-28T08:33:09.245Z,55.10
2018-09-28T08:33:41.906Z,55.90
2018-09-28T08:34:14.549Z,56.30
2018-09-28T08:34:47.196Z,56.20
2018-09-28T08:35:19.865Z,56.40
2018-09-28T08:35:52.547Z,56.40
2018-09-28T08:36:25.298Z,55.50
2018-09-28T08:36:57.898Z,55.30
2018-09-28T08:37:30.546Z,55.30
2018-09-28T08:38:03.195Z,55.60
2018-09-28T08:38:35.864Z,55.80
2018-09-28T08:39:09.374Z,55.60
2018-09-28T08:39:42.037Z,55.90
2018-09-28T08:40:14.658Z,56.40
2018-09-28T08:40:47.295Z,56.80
2018-09-28T08:41:19.955Z,56.60
2018-09-28T08:41:52.660Z,56.70
2018-09-28T08:42:25.255Z,56.40
2018-09-28T08:42:57.902Z,56.20
2018-09-28T08:43:30.578Z,56.20
2018-09-28T08:44:03.242Z,56.30
2018-09-28T08:44:35.947Z,56.70
2018-09-28T08:45:08.619Z,57.40
2018-09-28T08:45:41.301Z,56.60
2018-09-28T08:46:13.942Z,56.80
2018-09-28T08:46:46.574Z,57.10
2018-09-28T08:47:19.203Z,57.30
2018-09-28T08:47:51.865Z,57.20
2018-09-28T08:48:24.529Z,58.00
2018-09-28T08:48:57.190Z,57.70
2018-09-28T08:49:29.840Z,57.90
2018-09-28T08:50:02.549Z,57.90
2018-09-28T08:50:35.294Z,57.30
2018-09-28T08:51:07.942Z,57.70
2018-09-28T08:51:40.657Z,56.50
2018-09-28T08:52:13.302Z,56.70
2018-09-28T08:52:45.992Z,56.80
2018-09-28T08:53:18.660Z,56.90
2018-09-28T08:53:51.366Z,57.00
2018-09-28T08:54:23.986Z,57.20
2018-09-28T08:54:56.610Z,57.10
2018-09-28T08:55:29.302Z,57.30
2018-09-28T08:56:01.967Z,56.90
2018-09-28T08:56:34.637Z,56.60
2018-09-28T08:57:07.328Z,56.80
2018-09-28T08:57:39.997Z,56.40
2018-09-28T08:58:12.654Z,56.80
2018-09-28T08:58:45.318Z,57.20
2018-09-28T08:59:17.975Z,57.30
2018-09-28T08:59:50.638Z,57.10
2018-09-28T09:00:23.269Z,57.10
2018-09-28T09:00:55.985Z,57.10
2018-09-28T09:01:28.619Z,57.00
2018-09-28T09:02:01.339Z,57.60
2018-09-28T09:02:33.961Z,56.80
2018-09-28T09:03:06.618Z,56.10
2018-09-28T09:03:39.274Z,56.50
2018-09-28T09:04:11.949Z,56.10
2018-09-28T09:04:44.587Z,56.00
2018-09-28T09:05:17.251Z,56.30
2018-09-28T09:05:56.699Z,55.30
2018-09-28T09:06:29.362Z,55.00
2018-09-28T09:07:02.030Z,55.20
2018-09-28T09:07:34.697Z,54.30
2018-09-28T09:08:07.417Z,54.20
2018-09-28T09:08:40.078Z,54.50
2018-09-28T09:09:13.162Z,53.50
2018-09-28T09:09:45.804Z,53.30
2018-09-28T09:10:18.461Z,52.90
2018-09-28T09:10:51.114Z,52.80
2018-09-28T09:11:23.805Z,52.60
2018-09-28T09:11:56.474Z,53.30
2018-09-28T09:12:29.137Z,53.40
2018-09-28T09:13:01.851Z,53.70
2018-09-28T09:13:34.742Z,54.00
2018-09-28T09:14:07.501Z,54.30
2018-09-28T09:14:40.132Z,53.50
2018-09-28T09:15:12.806Z,53.80
2018-09-28T09:15:45.523Z,53.10
2018-09-28T09:16:18.186Z,53.30
2018-09-28T09:16:50.914Z,53.00
2018-09-28T09:17:23.591Z,52.70
2018-09-28T09:17:56.286Z,52.60
2018-09-28T09:18:28.902Z,53.60
2018-09-28T09:19:01.602Z,52.90
2018-09-28T09:19:34.247Z,52.60
2018-09-28T09:20:07.015Z,53.10
2018-09-28T09:20:39.668Z,53.40
2018-09-28T09:21:12.335Z,53.20
2018-09-28T09:21:44.968Z,52.40
2018-09-28T09:22:17.662Z,52.10
2018-09-28T09:22:50.298Z,52.20
2018-09-28T09:23:22.934Z,52.80
2018-09-28T09:23:55.602Z,52.70
2018-09-28T09:24:28.242Z,52.70
2018-09-28T09:25:00.955Z,52.20
2018-09-28T09:25:33.630Z,52.10
2018-09-28T09:26:06.312Z,52.10
2018-09-28T09:26:38.955Z,52.00
2018-09-28T09:27:11.618Z,52.40
2018-09-28T09:27:44.311Z,52.80
2018-09-28T09:28:16.994Z,53.10
2018-09-28T09:28:49.661Z,52.90
2018-09-28T09:29:22.320Z,52.80
2018-09-28T09:29:54.991Z,53.10
2018-09-28T09:30:27.642Z,52.90
2018-09-28T09:31:00.564Z,52.60
2018-09-28T09:31:33.193Z,52.80
2018-09-28T09:32:05.878Z,52.50
2018-09-28T09:32:38.542Z,52.10
2018-09-28T09:33:11.479Z,51.50
2018-09-28T09:33:44.131Z,51.10
2018-09-28T09:34:16.770Z,51.30
2018-09-28T09:34:49.444Z,50.80
2018-09-28T09:35:22.070Z,52.00
2018-09-28T09:35:54.808Z,51.10
2018-09-28T09:36:27.459Z,51.20
2018-09-28T09:37:00.382Z,51.60
2018-09-28T09:37:33.045Z,51.70
2018-09-28T09:38:05.705Z,51.30
2018-09-28T09:38:38.382Z,50.50
2018-09-28T09:39:11.668Z,50.90
2018-09-28T09:39:44.314Z,51.60
2018-09-28T09:40:16.995Z,51.40
2018-09-28T09:40:49.625Z,51.80
2018-09-28T09:41:22.334Z,52.20
2018-09-28T09:41:54.975Z,52.30
2018-09-28T09:42:27.687Z,51.80
2018-09-28T09:43:00.279Z,51.60
2018-09-28T09:43:32.945Z,50.80
2018-09-28T09:44:05.638Z,50.60
2018-09-28T09:44:38.362Z,50.40
2018-09-28T09:45:11.020Z,50.60
2018-09-28T09:45:43.697Z,50.60
2018-09-28T09:46:16.334Z,51.00
2018-09-28T09:46:49.011Z,50.60
2018-09-28T09:47:21.680Z,50.40
2018-09-28T09:47:54.346Z,50.30
2018-09-28T09:48:27.081Z,50.80
2018-09-28T09:48:59.695Z,50.60
2018-09-28T09:49:32.389Z,51.60
2018-09-28T09:50:05.142Z,51.10
2018-09-28T09:50:37.847Z,50.80
2018-09-28T09:51:10.478Z,50.50
2018-09-28T09:51:43.134Z,50.50
2018-09-28T09:52:15.769Z,50.30
2018-09-28T09:52:48.434Z,49.80
2018-09-28T09:53:21.061Z,49.20
2018-09-28T09:53:53.713Z,49.00
2018-09-28T09:54:26.362Z,49.20
2018-09-28T09:54:59.050Z,49.10
2018-09-28T09:55:31.745Z,48.90
2018-09-28T09:56:04.436Z,48.70
2018-09-28T09:56:37.093Z,48.80
2018-09-28T09:57:09.743Z,49.60
2018-09-28T09:57:42.417Z,50.50
2018-09-28T09:58:23.685Z,50.30
2018-09-28T09:58:56.297Z,50.30
2018-09-28T09:59:28.899Z,51.40
2018-09-28T10:00:01.544Z,51.70
2018-09-28T10:00:39.848Z,50.00
2018-09-28T10:01:18.072Z,49.40
2018-09-28T10:01:56.345Z,49.20
2018-09-28T10:02:34.669Z,49.10
2018-09-28T10:03:13.020Z,48.00
2018-09-28T10:03:47.724Z,47.90
2018-09-28T10:04:20.332Z,48.10
2018-09-28T10:04:52.929Z,48.40
2018-09-28T10:05:25.555Z,48.70
2018-09-28T10:05:58.147Z,48.40
2018-09-28T10:06:30.801Z,48.40
2018-09-28T10:07:03.417Z,48.70
2018-09-28T10:07:36.028Z,48.00
2018-09-28T10:08:08.626Z,47.80
2018-09-28T10:08:41.233Z,48.20
2018-09-28T10:09:14.469Z,48.10
2018-09-28T10:09:47.111Z,48.20
2018-09-28T10:10:19.659Z,48.40
2018-09-28T10:10:52.284Z,48.40
2018-09-28T10:11:24.867Z,48.00
2018-09-28T10:11:57.457Z,48.80
2018-09-28T10:12:30.156Z,48.40
2018-09-28T10:13:02.728Z,48.80
2018-09-28T10:13:35.324Z,48.80
2018-09-28T10:14:08.061Z,48.90
2018-09-28T10:14:40.655Z,46.70
2018-09-28T10:15:13.237Z,46.10
2018-09-28T10:15:45.838Z,45.10
2018-09-28T10:16:18.457Z,43.50
2018-09-28T10:16:51.044Z,43.60
2018-09-28T10:17:23.639Z,44.30
2018-09-28T10:17:56.254Z,43.80
2018-09-28T10:18:28.844Z,43.30
2018-09-28T10:19:01.468Z,43.60
2018-09-28T10:19:34.081Z,43.90
2018-09-28T10:20:06.734Z,44.20
2018-09-28T10:20:39.320Z,44.30
2018-09-28T10:21:11.923Z,44.10
2018-09-28T10:21:44.572Z,43.50
2018-09-28T10:22:17.187Z,43.90
2018-09-28T10:22:56.441Z,43.70
2018-09-28T10:24:08.377Z,44.80
2018-09-28T10:24:40.984Z,45.70
2018-09-28T10:25:13.584Z,46.90
2018-09-28T10:25:46.177Z,45.60
2018-09-28T10:26:18.760Z,45.40
2018-09-28T10:26:51.409Z,45.50
2018-09-28T10:27:24.938Z,45.50
2018-09-28T10:27:57.945Z,45.60
2018-09-28T10:28:30.584Z,45.60
2018-09-28T10:29:03.868Z,46.30
2018-09-28T10:29:36.473Z,46.20
2018-09-28T10:30:09.093Z,46.00
2018-09-28T10:30:41.693Z,46.00
2018-09-28T10:31:14.285Z,46.00
2018-09-28T10:31:46.951Z,46.20
2018-09-28T10:32:19.585Z,45.50
2018-09-28T10:32:52.176Z,45.10
2018-09-28T10:33:24.775Z,44.70
2018-09-28T10:33:57.372Z,44.90
2018-09-28T10:34:30.006Z,44.40
2018-09-28T10:35:02.633Z,44.50
2018-09-28T10:35:35.313Z,45.30
2018-09-28T10:36:07.937Z,45.80
2018-09-28T10:36:40.625Z,45.40
2018-09-28T10:37:13.220Z,45.30
2018-09-28T10:37:45.835Z,45.70
2018-09-28T10:38:18.447Z,45.30
2018-09-28T10:38:51.133Z,45.00
2018-09-28T10:39:23.761Z,45.90
2018-09-28T10:39:56.344Z,45.80
2018-09-28T10:40:29.044Z,45.10
2018-09-28T10:41:01.637Z,45.40
2018-09-28T10:41:34.183Z,45.90
2018-09-28T10:42:06.769Z,46.00
2018-09-28T10:42:39.363Z,46.40
2018-09-28T10:43:12.025Z,45.40
2018-09-28T10:43:44.620Z,45.30
2018-09-28T10:44:17.226Z,45.60
2018-09-28T10:44:49.826Z,45.20
2018-09-28T10:45:22.519Z,45.50
2018-09-28T10:45:55.036Z,46.10
2018-09-28T10:46:27.650Z,46.30
2018-09-28T10:47:00.248Z,46.30
2018-09-28T10:47:33.090Z,46.10
2018-09-28T10:48:05.738Z,46.50
2018-09-28T10:48:38.356Z,45.90
2018-09-28T10:49:10.956Z,45.70
2018-09-28T10:49:43.550Z,44.80
2018-09-28T10:50:16.144Z,44.80
2018-09-28T10:50:48.768Z,45.40
2018-09-28T10:51:21.405Z,45.70
2018-09-28T10:51:54.159Z,45.20
2018-09-28T10:52:26.772Z,45.40
2018-09-28T10:52:59.290Z,45.60
2018-09-28T10:53:31.876Z,45.10
2018-09-28T10:54:04.532Z,44.70
2018-09-28T10:54:37.305Z,44.60
2018-09-28T10:55:09.910Z,43.80
2018-09-28T10:55:42.511Z,44.20
2018-09-28T10:56:15.108Z,44.80
2018-09-28T10:56:47.705Z,45.30
2018-09-28T10:57:20.399Z,45.20
2018-09-28T10:57:52.981Z,45.50
2018-09-28T10:58:25.598Z,45.70
2018-09-28T10:58:58.313Z,44.40
2018-09-28T10:59:30.879Z,44.60
2018-09-28T11:00:03.753Z,46.20
2018-09-28T11:00:36.377Z,45.90
2018-09-28T11:01:08.996Z,44.60
2018-09-28T11:01:41.597Z,44.90
2018-09-28T11:02:14.204Z,45.40
2018-09-28T11:02:46.809Z,45.20
2018-09-28T11:03:19.493Z,45.00
2018-09-28T11:03:52.082Z,45.70
2018-09-28T11:04:24.735Z,45.80
2018-09-28T11:04:57.316Z,45.20
2018-09-28T11:05:29.895Z,44.80
2018-09-28T11:06:02.496Z,44.20
2018-09-28T11:06:35.101Z,43.80